Terminal Aerodrome Forecast
Issued by NWS

Home | Current Version | Previous Version | Text Only | Print | Product List | Glossary On
Versions: 1 2 3 4 5 6 7 8 9 10 11 12 13 14
000
FTUS43 KOAX 020500
TAFBFF
TAF
KBFF 020532Z 0206/0306 32005KT P6SM SCT120
     FM021800 30012G19KT P6SM SCT200
     FM030400 33017G26KT 6SM -SHRA SCT040 BKN080=

USA.gov is the U.S. government's official web portal to all federal, state and local government web resources and services.